createdAt,value
2023-03-11T11:26:36.683Z,815.63
2023-03-11T11:27:36.670Z,804.38
2023-03-11T11:28:36.628Z,781.88
2023-03-11T11:29:36.613Z,770.63
2023-03-11T11:30:36.621Z,753.75
2023-03-11T11:44:02.298Z,753.75
2023-03-11T11:45:02.266Z,776.25
2023-03-11T11:46:02.300Z,787.50
2023-03-11T11:47:02.362Z,798.75
2023-03-11T11:48:02.226Z,798.75
2023-03-11T11:49:02.167Z,798.75
2023-03-11T11:50:02.204Z,787.50
2023-03-11T11:51:02.147Z,781.88
2023-03-11T11:57:59.753Z,815.63
2023-03-11T11:58:59.724Z,798.75
2023-03-11T11:59:59.695Z,770.63
2023-03-11T12:18:18.965Z,916.88
2023-03-11T12:19:18.964Z,922.50
2023-03-11T12:20:18.930Z,866.25
2023-03-11T12:30:10.638Z,967.50
2023-03-11T12:31:10.721Z,967.50
2023-03-11T12:32:10.585Z,849.38
2023-03-11T12:33:10.565Z,821.25
2023-03-11T12:34:10.571Z,945.00
2023-03-11T12:35:10.541Z,1991.25
2023-03-11T12:36:10.568Z,2677.50
2023-03-11T12:37:10.482Z,2160.00
2023-03-11T12:38:10.473Z,1389.38
2023-03-11T12:39:10.450Z,798.75
2023-03-11T12:40:10.410Z,866.25
2023-03-11T12:41:10.397Z,1023.75
2023-03-11T12:42:10.388Z,1046.25
2023-03-11T12:43:10.376Z,978.75
2023-03-11T12:44:10.359Z,1001.25
2023-03-11T12:45:10.318Z,1215.00
2023-03-11T12:46:10.378Z,877.50
2023-03-11T12:47:10.282Z,781.88
2023-03-11T12:48:10.265Z,753.75
2023-03-11T12:49:56.275Z,849.38
2023-03-11T12:50:56.204Z,1130.63
2023-03-11T13:11:22.720Z,793.13
2023-03-11T13:12:22.683Z,759.38
2023-03-11T13:13:22.670Z,815.63
2023-03-11T13:15:41.399Z,793.13
2023-03-11T13:16:41.429Z,793.13
2023-03-11T13:17:41.329Z,770.63
2023-03-11T13:18:41.321Z,765.00
2023-03-11T13:23:55.177Z,855.00
2023-03-11T13:24:55.168Z,703.13
2023-03-11T13:25:55.125Z,776.25
2023-03-11T13:26:55.098Z,686.25
2023-03-11T13:29:44.253Z,770.63
2023-03-11T13:30:44.242Z,1130.63
2023-03-11T13:33:24.473Z,832.50
2023-03-11T13:34:24.456Z,815.63
2023-03-11T13:35:24.429Z,742.50
2023-03-11T13:36:24.420Z,703.13
2023-03-11T13:37:24.375Z,759.38
2023-03-11T13:38:24.368Z,770.63
2023-03-11T13:39:24.365Z,776.25
2023-03-11T13:40:24.382Z,978.75
2023-03-11T13:41:24.297Z,1074.38
2023-03-11T13:42:24.287Z,1254.38
2023-03-11T13:43:24.260Z,877.50
2023-03-11T13:44:24.280Z,961.88
2023-03-11T13:45:24.319Z,855.00
2023-03-11T13:46:24.217Z,787.50
2023-03-11T13:47:24.202Z,759.38
2023-03-11T13:48:24.165Z,765.00
2023-03-11T13:49:24.164Z,765.00
2023-03-11T13:50:24.153Z,798.75
2023-03-11T13:51:24.138Z,810.00
2023-03-11T13:52:24.109Z,855.00
2023-03-11T13:53:24.069Z,1485.00
2023-03-11T13:54:26.074Z,2750.63
2023-03-11T13:55:24.051Z,1563.75
2023-03-11T13:56:24.025Z,1344.38
2023-03-11T13:57:23.988Z,916.88
2023-03-11T13:58:23.976Z,781.88
2023-03-11T13:59:23.967Z,793.13
2023-03-11T14:00:23.944Z,714.38
2023-03-11T14:01:24.016Z,641.25
2023-03-11T14:04:55.848Z,826.88
2023-03-11T14:18:27.987Z,568.13
2023-03-11T14:53:04.850Z,871.88
2023-03-11T15:02:06.120Z,444.38
